createdAt,value
2022-11-18T00:03:52.243Z,13.30
2022-11-18T00:10:16.533Z,13.70
2022-11-18T00:17:03.424Z,13.80
2022-11-18T00:23:46.151Z,14.50
2022-11-18T00:30:29.338Z,12.90
2022-11-18T00:37:12.958Z,12.40
2022-11-18T00:43:56.199Z,12.60
2022-11-18T00:50:39.226Z,12.10
2022-11-18T00:57:21.797Z,12.20
2022-11-18T01:04:04.906Z,13.10
2022-11-18T01:10:49.357Z,12.70
2022-11-18T01:17:32.210Z,11.90
2022-11-18T01:24:15.326Z,12.30
2022-11-18T01:30:59.110Z,12.40
2022-11-18T01:37:42.795Z,11.30
2022-11-18T01:44:38.935Z,12.30
2022-11-18T01:51:21.933Z,11.60
2022-11-18T01:58:08.089Z,11.50
2022-11-18T02:04:51.301Z,12.00
2022-11-18T02:11:34.993Z,11.60
2022-11-18T02:18:39.108Z,11.40
2022-11-18T02:25:24.938Z,12.00
2022-11-18T02:32:14.688Z,11.50
2022-11-18T02:39:01.167Z,10.70
2022-11-18T02:45:47.128Z,11.10
2022-11-18T02:52:32.310Z,10.90
2022-11-18T02:59:15.447Z,10.20
2022-11-18T03:06:07.102Z,12.60
2022-11-18T03:12:59.264Z,11.50
2022-11-18T03:19:48.240Z,9.20
2022-11-18T03:26:43.598Z,11.40
2022-11-18T03:33:31.301Z,11.60
2022-11-18T03:40:14.103Z,13.00
2022-11-18T03:47:08.945Z,11.50
2022-11-18T03:53:52.309Z,11.40
2022-11-18T04:00:51.561Z,8.80
2022-11-18T04:07:37.503Z,9.30
2022-11-18T04:14:29.291Z,10.40
2022-11-18T04:21:15.255Z,10.10
2022-11-18T04:27:59.080Z,11.00
2022-11-18T04:34:41.891Z,10.20
2022-11-18T04:41:24.947Z,10.20
2022-11-18T04:48:07.884Z,10.70
2022-11-18T04:54:50.894Z,10.70
2022-11-18T05:01:33.750Z,12.40
2022-11-18T05:08:19.416Z,11.10
2022-11-18T05:15:02.478Z,10.50
2022-11-18T05:21:45.658Z,10.70
2022-11-18T05:28:28.769Z,12.00
2022-11-18T05:35:11.457Z,12.50
2022-11-18T05:41:52.786Z,13.20
2022-11-18T05:48:35.710Z,14.20
2022-11-18T05:55:21.490Z,11.30
2022-11-18T06:02:04.652Z,10.00
2022-11-18T06:08:47.887Z,11.60
2022-11-18T06:15:31.037Z,14.10
2022-11-18T06:22:14.798Z,15.40
2022-11-18T06:28:58.775Z,13.90
2022-11-18T06:34:57.794Z,18.10
2022-11-18T06:41:42.812Z,14.40
2022-11-18T06:48:25.766Z,13.50
2022-11-18T06:55:08.960Z,12.30
2022-11-18T07:01:54.790Z,13.00
2022-11-18T07:08:18.839Z,14.40
2022-11-18T07:14:28.169Z,15.00
2022-11-18T07:21:11.471Z,13.30
2022-11-18T07:27:12.100Z,13.80
2022-11-18T07:33:13.108Z,14.50
2022-11-18T07:58:35.261Z,18.00
2022-11-18T08:05:18.539Z,16.50
2022-11-18T08:11:28.332Z,16.80
2022-11-18T08:23:43.347Z,17.20
2022-11-18T08:29:25.445Z,17.60
2022-11-18T08:35:21.288Z,15.40
2022-11-18T08:46:54.331Z,16.90
2022-11-18T08:52:38.283Z,17.40
2022-11-18T08:58:25.958Z,15.20
2022-11-18T09:10:01.356Z,17.10
2022-11-18T09:16:27.545Z,19.20
2022-11-18T09:22:50.608Z,20.00
2022-11-18T09:29:44.686Z,20.60
2022-11-18T09:36:28.859Z,23.50
2022-11-18T09:43:19.088Z,22.50
2022-11-18T09:50:41.532Z,19.60
2022-11-18T09:57:16.157Z,17.90
2022-11-18T10:04:08.413Z,17.70
2022-11-18T10:23:44.318Z,18.10
2022-11-18T10:29:47.350Z,20.60
2022-11-18T10:36:01.182Z,22.50
2022-11-18T10:41:45.251Z,19.20
2022-11-18T10:48:04.320Z,17.00
2022-11-18T10:54:27.324Z,19.90
2022-11-18T11:01:14.035Z,21.60
2022-11-18T11:08:35.294Z,20.20
2022-11-18T11:15:13.092Z,19.80
2022-11-18T11:21:58.358Z,19.90
2022-11-18T11:28:45.036Z,16.90
2022-11-18T11:35:36.743Z,21.80
2022-11-18T11:42:23.057Z,18.00
2022-11-18T11:55:07.627Z,21.40
2022-11-18T12:00:38.842Z,23.20
2022-11-18T12:06:38.463Z,30.10
2022-11-18T12:13:25.644Z,21.80
2022-11-18T12:20:11.704Z,18.70
2022-11-18T12:26:37.578Z,23.20
2022-11-18T12:33:38.688Z,22.80
2022-11-18T12:40:07.389Z,21.70
2022-11-18T12:46:50.739Z,20.30
2022-11-18T13:00:35.962Z,18.40
2022-11-18T13:07:20.928Z,19.00
2022-11-18T13:14:06.461Z,21.50
2022-11-18T13:20:01.602Z,22.50
2022-11-18T13:25:55.076Z,21.60
2022-11-18T13:32:11.157Z,19.50
2022-11-18T13:37:56.632Z,19.60
2022-11-18T13:43:56.042Z,19.70
2022-11-18T13:50:22.967Z,18.80
2022-11-18T13:55:56.430Z,17.30
2022-11-18T14:02:21.303Z,20.60
2022-11-18T14:08:54.230Z,21.00
2022-11-18T14:15:40.526Z,20.50
2022-11-18T14:22:26.734Z,20.70
2022-11-18T14:29:23.576Z,21.00
2022-11-18T14:35:34.645Z,23.00
2022-11-18T14:42:17.404Z,20.90
2022-11-18T14:48:40.571Z,21.30
2022-11-18T14:55:06.819Z,19.20
2022-11-18T15:01:51.076Z,22.10
2022-11-18T15:08:38.545Z,16.00
2022-11-18T15:15:21.740Z,20.80
2022-11-18T15:22:11.741Z,16.90
2022-11-18T15:28:55.455Z,19.80
2022-11-18T15:35:44.800Z,18.70
2022-11-18T15:42:29.946Z,22.20
2022-11-18T15:49:13.052Z,26.60
2022-11-18T15:55:56.353Z,24.40
2022-11-18T16:02:39.222Z,21.90
2022-11-18T16:09:22.350Z,23.60
2022-11-18T16:16:06.304Z,26.20
2022-11-18T16:29:01.944Z,27.40
2022-11-18T16:35:27.621Z,26.90
2022-11-18T16:42:06.437Z,27.20
2022-11-18T16:47:30.959Z,29.80
2022-11-18T16:53:33.482Z,28.50
2022-11-18T16:59:46.546Z,28.10
2022-11-18T17:05:14.589Z,22.80
2022-11-18T17:11:58.596Z,21.20
2022-11-18T17:18:42.783Z,19.40
2022-11-18T17:25:26.893Z,18.70
2022-11-18T17:32:15.172Z,20.40
2022-11-18T17:38:58.581Z,18.80
2022-11-18T17:45:49.005Z,16.20
2022-11-18T17:52:32.976Z,19.30
2022-11-18T17:59:17.484Z,19.70
2022-11-18T18:06:02.864Z,20.40
2022-11-18T18:12:26.994Z,17.30
2022-11-18T18:19:09.945Z,18.90
2022-11-18T18:25:52.919Z,17.50
2022-11-18T18:32:38.285Z,15.20
2022-11-18T18:39:24.799Z,15.30
2022-11-18T18:45:46.344Z,18.10
2022-11-18T18:52:29.405Z,14.90
2022-11-18T18:59:14.288Z,16.80
2022-11-18T19:06:41.867Z,15.10
2022-11-18T19:13:03.742Z,15.30
2022-11-18T19:20:04.663Z,18.20
2022-11-18T19:26:49.291Z,18.10
2022-11-18T19:33:32.505Z,17.20
2022-11-18T19:40:17.263Z,16.40
2022-11-18T19:47:05.700Z,14.50
2022-11-18T19:54:09.349Z,16.40
2022-11-18T20:00:52.700Z,16.50
2022-11-18T20:07:37.166Z,15.90
2022-11-18T20:14:20.670Z,15.10
2022-11-18T20:21:07.182Z,14.20
2022-11-18T20:27:50.409Z,14.20
2022-11-18T20:34:34.716Z,12.90
2022-11-18T20:41:19.518Z,14.10
2022-11-18T20:48:08.503Z,13.60
2022-11-18T20:54:52.182Z,15.10
2022-11-18T21:01:35.570Z,14.10
2022-11-18T21:08:21.365Z,14.50
2022-11-18T21:15:04.802Z,14.00
2022-11-18T21:22:08.039Z,16.00
2022-11-18T21:28:52.178Z,13.50
2022-11-18T21:35:37.539Z,13.20
2022-11-18T21:42:20.052Z,16.50
2022-11-18T21:49:06.396Z,17.50
2022-11-18T21:55:50.798Z,13.20
2022-11-18T22:02:33.829Z,13.30
2022-11-18T22:09:18.087Z,14.30
2022-11-18T22:16:01.501Z,14.20
2022-11-18T22:22:44.604Z,14.00
2022-11-18T22:29:28.137Z,13.90
2022-11-18T22:36:10.596Z,14.10
2022-11-18T22:43:08.498Z,15.50
2022-11-18T22:49:56.118Z,14.70
2022-11-18T22:56:45.816Z,12.70
2022-11-18T23:03:28.832Z,12.80
2022-11-18T23:10:12.547Z,15.50
2022-11-18T23:16:57.699Z,13.00
2022-11-18T23:23:42.638Z,14.80
2022-11-18T23:30:26.426Z,13.00
2022-11-18T23:37:09.501Z,12.80
2022-11-18T23:43:52.944Z,12.90
2022-11-18T23:50:39.301Z,11.10
2022-11-18T23:57:23.581Z,11.80
